createdAt,value
2016-05-30T00:02:55.489Z,65
2016-05-30T00:03:57.055Z,65
2016-05-30T00:08:02.377Z,65
2016-05-30T00:09:03.537Z,66
2016-05-30T00:10:04.712Z,65
2016-05-30T00:11:05.871Z,65
2016-05-30T00:12:07.217Z,65
2016-05-30T00:13:08.673Z,66
2016-05-30T00:15:11.850Z,66
2016-05-30T00:16:13.587Z,65
2016-05-30T00:17:14.699Z,65
2016-05-30T00:18:16.092Z,65
2016-05-30T00:19:17.376Z,65
2016-05-30T00:20:18.504Z,65
2016-05-30T00:21:19.662Z,65
2016-05-30T00:23:21.856Z,65
2016-05-30T00:24:22.811Z,65
2016-05-30T00:25:23.892Z,65
2016-05-30T00:26:24.800Z,65
2016-05-30T00:27:26.053Z,65
2016-05-30T00:28:27.057Z,65
2016-05-30T00:30:29.141Z,65
2016-05-30T00:31:29.861Z,65
2016-05-30T00:33:31.382Z,65
2016-05-30T00:34:32.322Z,65
2016-05-30T00:35:33.154Z,65
2016-05-30T00:36:34.797Z,65
2016-05-30T00:37:34.847Z,65
2016-05-30T00:38:35.740Z,64
2016-05-30T00:39:36.179Z,64
2016-05-30T00:40:37.308Z,65
2016-05-30T00:42:38.673Z,64
2016-05-30T00:43:39.254Z,64
2016-05-30T00:44:39.818Z,64
2016-05-30T00:45:40.324Z,64
2016-05-30T00:47:41.532Z,64
2016-05-30T00:48:41.926Z,64
2016-05-30T00:49:42.663Z,64
2016-05-30T00:50:43.743Z,64
2016-05-30T00:51:44.262Z,64
2016-05-30T00:52:44.889Z,64
2016-05-30T00:53:45.345Z,64
2016-05-30T00:54:46.036Z,64
2016-05-30T00:55:46.492Z,64
2016-05-30T00:56:47.056Z,64
2016-05-30T00:57:47.903Z,64
2016-05-30T00:58:48.297Z,64
2016-05-30T00:59:49.064Z,64
2016-05-30T01:00:49.849Z,64
2016-05-30T01:01:50.554Z,64
2016-05-30T01:02:51.135Z,64
2016-05-30T01:03:51.560Z,64
2016-05-30T01:04:52.297Z,64
2016-05-30T01:05:52.815Z,64
2016-05-30T01:06:53.318Z,64
2016-05-30T01:07:53.961Z,64
2016-05-30T01:08:54.526Z,64
2016-05-30T01:09:55.044Z,64
2016-05-30T01:10:56.187Z,64
2016-05-30T01:11:56.831Z,64
2016-05-30T01:12:57.318Z,64
2016-05-30T01:13:57.915Z,64
2016-05-30T01:14:58.339Z,64
2016-05-30T01:15:58.655Z,64
2016-05-30T01:16:59.095Z,64
2016-05-30T01:17:59.285Z,64
2016-05-30T01:18:59.865Z,64
2016-05-30T01:20:00.650Z,64
2016-05-30T01:21:01.746Z,64
2016-05-30T01:22:02.265Z,64
2016-05-30T01:23:02.642Z,64
2016-05-30T01:24:02.723Z,64
2016-05-30T01:25:03.195Z,64
2016-05-30T01:26:03.463Z,64
2016-05-30T01:27:03.669Z,64
2016-05-30T01:28:03.984Z,64
2016-05-30T01:29:04.299Z,64
2016-05-30T01:30:04.786Z,64
2016-05-30T01:31:05.695Z,64
2016-05-30T01:32:06.025Z,64
2016-05-30T01:33:06.341Z,64
2016-05-30T01:34:06.765Z,64
2016-05-30T01:35:07.206Z,64
2016-05-30T01:36:07.286Z,64
2016-05-30T01:37:07.774Z,64
2016-05-30T01:38:07.916Z,64
2016-05-30T01:39:08.232Z,64
2016-05-30T01:40:08.719Z,64
2016-05-30T01:41:09.769Z,64
2016-05-30T01:42:10.052Z,64
2016-05-30T01:43:10.274Z,64
2016-05-30T01:44:10.511Z,64
2016-05-30T01:45:11.013Z,64
2016-05-30T01:46:11.204Z,64
2016-05-30T01:47:11.518Z,64
2016-05-30T01:48:11.896Z,64
2016-05-30T01:49:12.165Z,64
2016-05-30T01:50:12.652Z,64
2016-05-30T01:52:13.876Z,64
2016-05-30T01:53:14.301Z,64
2016-05-30T01:54:14.459Z,64
2016-05-30T01:55:14.822Z,64
2016-05-30T01:56:15.199Z,64
2016-05-30T01:57:15.624Z,64
2016-05-30T01:58:15.892Z,64
2016-05-30T01:59:16.208Z,64
2016-05-30T02:00:16.475Z,64
2016-05-30T02:01:17.604Z,64
2016-05-30T02:02:17.966Z,64
2016-05-30T02:03:18.249Z,64
2016-05-30T02:04:18.549Z,64
2016-05-30T02:05:18.755Z,64
2016-05-30T02:06:19.289Z,64
2016-05-30T02:07:19.605Z,64
2016-05-30T02:08:19.873Z,64
2016-05-30T02:09:20.202Z,64
2016-05-30T02:10:20.519Z,64
2016-05-30T02:11:21.537Z,64
2016-05-30T02:12:21.774Z,64
2016-05-30T02:14:22.373Z,64
2016-05-30T02:15:22.688Z,64
2016-05-30T02:16:23.051Z,64
2016-05-30T02:17:23.554Z,64
2016-05-30T02:18:23.806Z,63
2016-05-30T02:19:23.746Z,63
2016-05-30T02:20:24.077Z,64
2016-05-30T02:21:24.782Z,63
2016-05-30T02:22:24.973Z,63
2016-05-30T02:23:25.084Z,63
2016-05-30T02:24:25.025Z,63
2016-05-30T02:25:25.215Z,63
2016-05-30T02:26:25.093Z,63
2016-05-30T02:27:25.220Z,63
2016-05-30T02:28:25.395Z,63
2016-05-30T02:29:25.367Z,63
2016-05-30T02:30:25.588Z,63
2016-05-30T02:31:26.544Z,63
2016-05-30T02:32:26.561Z,63
2016-05-30T02:33:26.737Z,63
2016-05-30T02:34:26.911Z,63
2016-05-30T02:35:26.805Z,63
2016-05-30T02:36:27.666Z,63
2016-05-30T02:37:27.107Z,63
2016-05-30T02:38:27.172Z,63
2016-05-30T02:39:27.125Z,63
2016-05-30T02:40:27.389Z,63
2016-05-30T02:41:28.215Z,63
2016-05-30T02:42:28.292Z,63
2016-05-30T02:43:28.494Z,63
2016-05-30T02:44:28.593Z,63
2016-05-30T02:45:28.590Z,63
2016-05-30T02:46:28.743Z,63
2016-05-30T02:47:28.817Z,63
2016-05-30T02:48:28.751Z,63
2016-05-30T02:50:29.188Z,63
2016-05-30T02:51:30.039Z,63
2016-05-30T02:52:30.170Z,63
2016-05-30T02:53:30.176Z,63
2016-05-30T02:54:30.290Z,63
2016-05-30T02:55:30.185Z,63
2016-05-30T02:56:30.423Z,63
2016-05-30T02:57:30.490Z,63
2016-05-30T02:58:30.509Z,63
2016-05-30T03:00:30.735Z,63
2016-05-30T03:01:31.645Z,63
2016-05-30T03:02:31.725Z,63
2016-05-30T03:03:31.792Z,63
2016-05-30T03:04:31.951Z,63
2016-05-30T03:05:32.017Z,63
2016-05-30T03:06:32.020Z,63
2016-05-30T03:07:32.522Z,63
2016-05-30T03:08:32.086Z,63
2016-05-30T03:13:33.116Z,63
2016-05-30T03:15:33.294Z,63
2016-05-30T03:16:32.968Z,63
2016-05-30T03:19:32.647Z,63
2016-05-30T03:20:32.572Z,63
2016-05-30T03:21:33.810Z,63
2016-05-30T03:22:33.358Z,63
2016-05-30T03:29:32.018Z,63
2016-05-30T03:32:32.823Z,63
2016-05-30T03:33:32.529Z,63
2016-05-30T03:35:32.018Z,63
2016-05-30T03:36:31.881Z,63
2016-05-30T03:37:32.290Z,63
2016-05-30T03:38:31.465Z,63
2016-05-30T03:39:31.405Z,63
2016-05-30T03:40:31.375Z,63
2016-05-30T03:41:32.270Z,63
2016-05-30T03:42:32.085Z,63
2016-05-30T03:43:31.837Z,63
2016-05-30T03:44:31.606Z,63
2016-05-30T03:45:31.328Z,63
2016-05-30T03:46:31.439Z,63
2016-05-30T03:47:31.020Z,63
2016-05-30T03:49:30.744Z,63
2016-05-30T03:50:30.653Z,63
2016-05-30T03:51:31.641Z,63
2016-05-30T03:52:31.627Z,63
2016-05-30T03:53:31.364Z,63
2016-05-30T03:54:31.179Z,63
2016-05-30T03:55:31.026Z,63
2016-05-30T03:56:30.560Z,63
2016-05-30T03:57:30.391Z,63
2016-05-30T03:58:30.190Z,63
2016-05-30T03:59:30.115Z,63
2016-05-30T04:00:29.977Z,63
2016-05-30T04:01:30.885Z,63
2016-05-30T04:02:30.920Z,63
2016-05-30T04:03:30.625Z,63
2016-05-30T04:04:30.426Z,63
2016-05-30T04:05:30.240Z,63
2016-05-30T04:06:30.368Z,63
2016-05-30T04:07:29.979Z,63
2016-05-30T04:08:29.576Z,62
2016-05-30T04:09:29.220Z,63
2016-05-30T04:12:29.915Z,63
2016-05-30T04:13:29.620Z,62
2016-05-30T04:16:28.848Z,62
2016-05-30T04:17:28.351Z,63
2016-05-30T04:18:28.166Z,63
2016-05-30T04:19:27.966Z,63
2016-05-30T04:20:27.781Z,63
2016-05-30T04:21:28.861Z,63
2016-05-30T04:22:28.802Z,63
2016-05-30T04:23:28.602Z,63
2016-05-30T04:24:28.400Z,63
2016-05-30T04:25:28.216Z,63
2016-05-30T04:26:28.030Z,63
2016-05-30T04:27:27.721Z,63
2016-05-30T04:29:27.445Z,63
2016-05-30T04:30:27.448Z,63
2016-05-30T04:31:28.341Z,63
2016-05-30T04:33:27.862Z,63
2016-05-30T04:35:27.601Z,63
2016-05-30T04:36:27.448Z,63
2016-05-30T04:37:27.327Z,63
2016-05-30T04:38:27.032Z,62
2016-05-30T04:39:26.597Z,62
2016-05-30T04:40:26.209Z,62
2016-05-30T04:42:26.777Z,62
2016-05-30T04:43:26.343Z,62
2016-05-30T04:44:25.783Z,62
2016-05-30T04:45:25.456Z,62
2016-05-30T04:46:24.898Z,62
2016-05-30T04:47:24.447Z,62
2016-05-30T04:48:24.012Z,62
2016-05-30T04:49:23.562Z,62
2016-05-30T04:50:23.049Z,62
2016-05-30T04:51:23.942Z,62
2016-05-30T04:52:23.305Z,61
2016-05-30T04:53:22.291Z,61
2016-05-30T04:55:19.516Z,60
2016-05-30T04:56:17.658Z,60
2016-05-30T04:57:15.818Z,60
2016-05-30T04:58:13.977Z,60
2016-05-30T04:59:12.026Z,60
2016-05-30T05:00:10.482Z,60
2016-05-30T05:01:11.391Z,60
2016-05-30T05:02:09.956Z,60
2016-05-30T05:03:08.521Z,61
2016-05-30T05:04:07.383Z,61
2016-05-30T05:08:02.518Z,61
2016-05-30T05:09:01.365Z,61
2016-05-30T05:10:00.353Z,61
2016-05-30T05:11:01.151Z,61
2016-05-30T05:12:00.061Z,60
2016-05-30T05:12:58.470Z,60
2016-05-30T05:13:57.003Z,60
2016-05-30T05:15:53.712Z,60
2016-05-30T05:16:52.137Z,60
2016-05-30T05:17:50.280Z,60
2016-05-30T05:21:49.182Z,57
2016-05-30T05:23:49.109Z,55
2016-05-30T05:27:44.430Z,52
2016-05-30T05:28:42.698Z,51
2016-05-30T05:29:40.310Z,51
2016-05-30T05:30:41.546Z,51
2016-05-30T05:32:36.990Z,52
2016-05-30T05:36:30.563Z,53
2016-05-30T05:37:28.925Z,53
2016-05-30T05:39:25.696Z,52
2016-05-30T05:40:26.823Z,51
2016-05-30T05:43:27.395Z,50
2016-05-30T05:44:28.350Z,49
2016-05-30T05:46:29.105Z,48
2016-05-30T05:47:28.671Z,48
2016-05-30T05:48:28.455Z,47
2016-05-30T05:49:28.067Z,47
2016-05-30T05:50:29.086Z,46
2016-05-30T05:51:28.556Z,46
2016-05-30T05:52:26.902Z,46
2016-05-30T05:53:25.811Z,45
2016-05-30T05:54:23.972Z,45
2016-05-30T05:55:22.520Z,44
2016-05-30T05:56:20.523Z,44
2016-05-30T05:57:18.057Z,44
2016-05-30T05:59:17.485Z,42
2016-05-30T06:00:18.722Z,42
2016-05-30T06:02:21.368Z,42
2016-05-30T06:06:20.160Z,45
2016-05-30T06:11:18.563Z,49
2016-05-30T06:12:18.879Z,49
2016-05-30T06:13:19.709Z,50
2016-05-30T06:18:19.504Z,52
2016-05-30T06:19:17.944Z,53
2016-05-30T06:21:17.872Z,53
2016-05-30T06:22:16.327Z,54
2016-05-30T06:24:14.739Z,54
2016-05-30T06:25:14.272Z,55
2016-05-30T06:26:13.713Z,55
2016-05-30T06:28:13.062Z,55
2016-05-30T06:29:12.815Z,56
2016-05-30T06:30:13.833Z,56
2016-05-30T06:31:14.023Z,56
2016-05-30T06:32:14.448Z,56
2016-05-30T06:33:14.732Z,56
2016-05-30T06:34:14.938Z,57
2016-05-30T06:35:18.285Z,57
2016-05-30T06:36:15.959Z,57
2016-05-30T06:39:18.435Z,57
2016-05-30T06:40:19.610Z,57
2016-05-30T06:41:20.425Z,57
2016-05-30T06:42:21.257Z,57
2016-05-30T06:43:22.071Z,58
2016-05-30T06:45:24.342Z,58
2016-05-30T06:48:27.381Z,58
2016-05-30T06:49:28.573Z,58
2016-05-30T06:50:29.715Z,58
2016-05-30T06:55:36.370Z,58
2016-05-30T06:57:39.031Z,58
2016-05-30T06:58:40.331Z,58
2016-05-30T06:59:41.536Z,58
2016-05-30T07:01:44.260Z,59
2016-05-30T07:04:48.941Z,59
2016-05-30T07:05:54.899Z,59
2016-05-30T07:06:52.430Z,59
2016-05-30T07:07:53.574Z,59
2016-05-30T07:08:51.466Z,59
2016-05-30T07:09:53.219Z,59
2016-05-30T07:10:54.128Z,59
2016-05-30T07:11:51.788Z,59
2016-05-30T07:12:49.806Z,59
2016-05-30T07:13:47.479Z,59
2016-05-30T07:14:45.249Z,59
2016-05-30T07:17:38.585Z,59
2016-05-30T07:19:34.231Z,59
2016-05-30T07:21:32.830Z,59
2016-05-30T07:22:30.770Z,59
2016-05-30T07:23:28.679Z,59
2016-05-30T07:24:26.463Z,59
2016-05-30T07:26:21.844Z,60
2016-05-30T07:27:19.847Z,60
2016-05-30T07:28:17.880Z,60
2016-05-30T07:29:16.008Z,60
2016-05-30T07:30:17.214Z,60
2016-05-30T07:33:11.143Z,60
2016-05-30T07:35:07.133Z,60
2016-05-30T07:36:05.308Z,60
2016-05-30T07:37:03.451Z,60
2016-05-30T07:38:05.844Z,60
2016-05-30T07:38:59.612Z,60
2016-05-30T07:40:58.384Z,60
2016-05-30T07:41:56.433Z,60
2016-05-30T07:42:54.699Z,60
2016-05-30T07:43:52.623Z,60
2016-05-30T07:44:50.533Z,60
2016-05-30T07:45:48.551Z,60
2016-05-30T07:47:44.868Z,60
2016-05-30T07:50:45.111Z,60
2016-05-30T07:52:37.834Z,60
2016-05-30T07:54:34.028Z,60
2016-05-30T07:57:28.005Z,60
2016-05-30T07:58:26.211Z,60
2016-05-30T07:59:27.228Z,60
2016-05-30T08:00:25.638Z,60
2016-05-30T08:01:23.547Z,60
2016-05-30T08:02:21.581Z,60
2016-05-30T08:03:19.739Z,60
2016-05-30T08:04:17.789Z,60
2016-05-30T08:06:14.482Z,60
2016-05-30T08:07:12.766Z,60
2016-05-30T08:08:10.441Z,60
2016-05-30T08:09:11.772Z,60
2016-05-30T08:10:09.915Z,60
2016-05-30T08:11:07.855Z,60
2016-05-30T08:12:05.873Z,60
2016-05-30T08:14:02.066Z,60
2016-05-30T08:16:57.025Z,60
2016-05-30T08:17:55.262Z,60
2016-05-30T08:20:52.770Z,60
2016-05-30T08:22:49.495Z,60
2016-05-30T08:26:42.723Z,60
2016-05-30T08:27:41.054Z,60
2016-05-30T08:31:36.955Z,60
2016-05-30T08:41:23.764Z,61
2016-05-30T08:44:20.272Z,61
2016-05-30T08:46:17.527Z,61
2016-05-30T08:52:13.481Z,61
2016-05-30T08:53:12.186Z,61
2016-05-30T08:56:09.304Z,61
2016-05-30T08:57:08.589Z,61
2016-05-30T08:58:09.467Z,61
2016-05-30T09:04:02.467Z,61
2016-05-30T09:05:01.016Z,61
2016-05-30T09:05:59.847Z,61
2016-05-30T09:08:58.353Z,60
2016-05-30T09:10:55.373Z,60
2016-05-30T09:14:49.587Z,60
2016-05-30T09:15:47.980Z,60
2016-05-30T09:20:44.151Z,61
2016-05-30T09:22:41.374Z,60
2016-05-30T09:24:38.692Z,60
2016-05-30T09:25:36.960Z,60
2016-05-30T18:49:29.794Z,62
2016-05-30T18:56:28.187Z,62
2016-05-30T19:03:24.562Z,62
2016-05-30T19:04:24.034Z,62
2016-05-30T19:06:24.273Z,62
2016-05-30T19:07:23.854Z,62
2016-05-30T22:36:39.851Z,70
2016-05-30T22:45:42.926Z,71
2016-05-30T22:46:43.225Z,71
2016-05-30T22:48:43.745Z,71
2016-05-30T22:52:45.209Z,71
2016-05-30T22:53:46.353Z,71
2016-05-30T22:55:47.375Z,71
2016-05-30T23:27:04.222Z,69
2016-05-30T23:28:02.898Z,69
2016-05-30T23:35:01.057Z,69
2016-05-30T23:49:48.988Z,68
2016-05-30T23:50:47.850Z,68
2016-05-30T23:55:43.830Z,68
2016-05-30T23:56:42.910Z,68
2016-05-30T23:58:40.009Z,68
